sensor_id;sensor_type;location;lat;lon;timestamp;P1;durP1;ratioP1;P2;durP2;ratioP2
49101;SDS011;34913;47.520;19.186;2023-12-20T00:00:05;45.00;;;15.75;;
49101;SDS011;34913;47.520;19.186;2023-12-20T00:02:31;55.60;;;15.40;;
49101;SDS011;34913;47.520;19.186;2023-12-20T00:04:56;58.30;;;15.32;;
49101;SDS011;34913;47.520;19.186;2023-12-20T00:07:21;57.15;;;16.88;;
49101;SDS011;34913;47.520;19.186;2023-12-20T00:09:47;56.65;;;15.98;;
49101;SDS011;34913;47.520;19.186;2023-12-20T00:12:12;50.10;;;16.70;;
49101;SDS011;34913;47.520;19.186;2023-12-20T00:14:37;47.08;;;16.48;;
49101;SDS011;34913;47.520;19.186;2023-12-20T00:17:03;55.28;;;17.63;;
49101;SDS011;34913;47.520;19.186;2023-12-20T00:19:28;47.55;;;17.40;;
49101;SDS011;34913;47.520;19.186;2023-12-20T00:21:53;53.45;;;17.23;;
49101;SDS011;34913;47.520;19.186;2023-12-20T00:24:19;44.33;;;16.77;;
49101;SDS011;34913;47.520;19.186;2023-12-20T00:26:45;48.28;;;16.77;;
49101;SDS011;34913;47.520;19.186;2023-12-20T00:29:10;57.50;;;16.95;;
49101;SDS011;34913;47.520;19.186;2023-12-20T00:31:36;48.88;;;16.27;;
49101;SDS011;34913;47.520;19.186;2023-12-20T00:34:01;47.70;;;16.60;;
49101;SDS011;34913;47.520;19.186;2023-12-20T00:36:26;43.47;;;17.15;;
49101;SDS011;34913;47.520;19.186;2023-12-20T00:38:52;60.83;;;16.58;;
49101;SDS011;34913;47.520;19.186;2023-12-20T00:41:17;59.95;;;16.42;;
49101;SDS011;34913;47.520;19.186;2023-12-20T00:43:43;47.10;;;16.42;;
49101;SDS011;34913;47.520;19.186;2023-12-20T00:46:09;45.13;;;16.02;;
49101;SDS011;34913;47.520;19.186;2023-12-20T00:48:34;62.95;;;17.33;;
49101;SDS011;34913;47.520;19.186;2023-12-20T00:51:00;49.13;;;17.13;;
49101;SDS011;34913;47.520;19.186;2023-12-20T00:53:25;39.80;;;17.10;;
49101;SDS011;34913;47.520;19.186;2023-12-20T00:55:50;49.58;;;16.90;;
49101;SDS011;34913;47.520;19.186;2023-12-20T00:58:16;42.53;;;16.40;;
49101;SDS011;34913;47.520;19.186;2023-12-20T01:00:42;49.80;;;16.70;;
49101;SDS011;34913;47.520;19.186;2023-12-20T01:03:08;48.17;;;16.73;;
49101;SDS011;34913;47.520;19.186;2023-12-20T01:05:33;42.85;;;17.15;;
49101;SDS011;34913;47.520;19.186;2023-12-20T01:07:58;46.38;;;16.52;;
49101;SDS011;34913;47.520;19.186;2023-12-20T01:10:24;45.58;;;16.02;;
49101;SDS011;34913;47.520;19.186;2023-12-20T01:12:53;40.00;;;17.13;;
49101;SDS011;34913;47.520;19.186;2023-12-20T01:15:18;45.13;;;17.15;;
49101;SDS011;34913;47.520;19.186;2023-12-20T01:17:43;37.75;;;16.45;;
49101;SDS011;34913;47.520;19.186;2023-12-20T01:20:09;44.75;;;16.67;;
49101;SDS011;34913;47.520;19.186;2023-12-20T01:22:34;55.65;;;16.80;;
49101;SDS011;34913;47.520;19.186;2023-12-20T01:25:00;42.83;;;17.27;;
49101;SDS011;34913;47.520;19.186;2023-12-20T01:27:27;63.53;;;17.60;;
49101;SDS011;34913;47.520;19.186;2023-12-20T01:29:53;44.97;;;17.23;;
49101;SDS011;34913;47.520;19.186;2023-12-20T01:32:18;52.58;;;17.08;;
49101;SDS011;34913;47.520;19.186;2023-12-20T01:34:43;49.90;;;17.63;;
49101;SDS011;34913;47.520;19.186;2023-12-20T01:37:08;43.75;;;18.13;;
49101;SDS011;34913;47.520;19.186;2023-12-20T01:39:34;65.43;;;18.65;;
49101;SDS011;34913;47.520;19.186;2023-12-20T01:41:59;53.90;;;18.63;;
49101;SDS011;34913;47.520;19.186;2023-12-20T01:44:24;59.47;;;19.30;;
49101;SDS011;34913;47.520;19.186;2023-12-20T01:46:50;72.93;;;19.90;;
49101;SDS011;34913;47.520;19.186;2023-12-20T01:49:15;52.72;;;19.58;;
49101;SDS011;34913;47.520;19.186;2023-12-20T01:51:41;51.95;;;19.77;;
49101;SDS011;34913;47.520;19.186;2023-12-20T01:54:07;60.65;;;20.50;;
49101;SDS011;34913;47.520;19.186;2023-12-20T01:56:33;52.05;;;18.65;;
49101;SDS011;34913;47.520;19.186;2023-12-20T01:58:59;56.58;;;18.08;;
49101;SDS011;34913;47.520;19.186;2023-12-20T02:01:25;59.03;;;18.58;;
49101;SDS011;34913;47.520;19.186;2023-12-20T02:03:53;54.33;;;19.83;;
49101;SDS011;34913;47.520;19.186;2023-12-20T02:06:18;57.35;;;17.60;;
49101;SDS011;34913;47.520;19.186;2023-12-20T02:08:46;50.35;;;17.85;;
49101;SDS011;34913;47.520;19.186;2023-12-20T02:11:12;58.30;;;18.13;;
49101;SDS011;34913;47.520;19.186;2023-12-20T02:13:37;61.60;;;17.13;;
49101;SDS011;34913;47.520;19.186;2023-12-20T02:16:03;50.67;;;17.88;;
49101;SDS011;34913;47.520;19.186;2023-12-20T02:18:29;61.83;;;17.42;;
49101;SDS011;34913;47.520;19.186;2023-12-20T02:20:54;57.80;;;18.35;;
49101;SDS011;34913;47.520;19.186;2023-12-20T02:23:20;56.20;;;16.55;;
49101;SDS011;34913;47.520;19.186;2023-12-20T02:25:46;54.22;;;17.75;;
49101;SDS011;34913;47.520;19.186;2023-12-20T02:28:11;61.40;;;17.42;;
49101;SDS011;34913;47.520;19.186;2023-12-20T02:30:37;69.05;;;18.40;;
49101;SDS011;34913;47.520;19.186;2023-12-20T02:33:02;71.53;;;18.55;;
49101;SDS011;34913;47.520;19.186;2023-12-20T02:35:31;65.70;;;18.63;;
49101;SDS011;34913;47.520;19.186;2023-12-20T02:37:57;82.07;;;18.92;;
49101;SDS011;34913;47.520;19.186;2023-12-20T02:40:22;77.90;;;19.13;;
49101;SDS011;34913;47.520;19.186;2023-12-20T02:42:47;73.00;;;18.75;;
49101;SDS011;34913;47.520;19.186;2023-12-20T02:45:13;58.95;;;18.60;;
49101;SDS011;34913;47.520;19.186;2023-12-20T02:47:38;57.38;;;19.05;;
49101;SDS011;34913;47.520;19.186;2023-12-20T02:50:03;65.13;;;18.40;;
49101;SDS011;34913;47.520;19.186;2023-12-20T02:52:29;67.07;;;19.60;;
49101;SDS011;34913;47.520;19.186;2023-12-20T02:54:54;61.50;;;19.08;;
49101;SDS011;34913;47.520;19.186;2023-12-20T02:57:19;66.10;;;19.25;;
49101;SDS011;34913;47.520;19.186;2023-12-20T02:59:45;62.38;;;18.08;;
49101;SDS011;34913;47.520;19.186;2023-12-20T03:02:10;74.75;;;18.75;;
49101;SDS011;34913;47.520;19.186;2023-12-20T03:04:35;66.20;;;19.08;;
49101;SDS011;34913;47.520;19.186;2023-12-20T03:07:01;74.05;;;19.88;;
49101;SDS011;34913;47.520;19.186;2023-12-20T03:09:26;80.05;;;20.23;;
49101;SDS011;34913;47.520;19.186;2023-12-20T03:11:51;93.95;;;21.38;;
49101;SDS011;34913;47.520;19.186;2023-12-20T03:14:17;61.88;;;20.92;;
49101;SDS011;34913;47.520;19.186;2023-12-20T03:16:46;61.70;;;22.00;;
49101;SDS011;34913;47.520;19.186;2023-12-20T03:19:12;68.70;;;21.92;;
49101;SDS011;34913;47.520;19.186;2023-12-20T03:21:37;66.53;;;22.15;;
49101;SDS011;34913;47.520;19.186;2023-12-20T03:24:03;52.92;;;20.45;;
49101;SDS011;34913;47.520;19.186;2023-12-20T03:26:28;80.43;;;20.73;;
49101;SDS011;34913;47.520;19.186;2023-12-20T03:28:54;67.70;;;21.13;;
49101;SDS011;34913;47.520;19.186;2023-12-20T03:31:19;70.68;;;21.23;;
49101;SDS011;34913;47.520;19.186;2023-12-20T03:33:45;64.22;;;20.15;;
49101;SDS011;34913;47.520;19.186;2023-12-20T03:36:11;64.22;;;20.92;;
49101;SDS011;34913;47.520;19.186;2023-12-20T03:38:36;53.42;;;20.70;;
49101;SDS011;34913;47.520;19.186;2023-12-20T03:41:01;68.03;;;20.92;;
49101;SDS011;34913;47.520;19.186;2023-12-20T03:43:27;57.88;;;20.75;;
49101;SDS011;34913;47.520;19.186;2023-12-20T03:45:52;49.78;;;19.95;;
49101;SDS011;34913;47.520;19.186;2023-12-20T03:48:18;64.55;;;21.50;;
49101;SDS011;34913;47.520;19.186;2023-12-20T03:50:43;59.65;;;21.65;;
49101;SDS011;34913;47.520;19.186;2023-12-20T03:53:08;71.97;;;21.98;;
49101;SDS011;34913;47.520;19.186;2023-12-20T03:55:34;64.25;;;20.92;;
49101;SDS011;34913;47.520;19.186;2023-12-20T03:57:59;85.07;;;21.70;;
49101;SDS011;34913;47.520;19.186;2023-12-20T04:00:24;74.43;;;22.77;;
49101;SDS011;34913;47.520;19.186;2023-12-20T04:02:49;70.13;;;23.17;;
49101;SDS011;34913;47.520;19.186;2023-12-20T04:05:15;66.75;;;22.75;;
49101;SDS011;34913;47.520;19.186;2023-12-20T04:07:41;85.13;;;23.52;;
49101;SDS011;34913;47.520;19.186;2023-12-20T04:10:06;78.25;;;22.88;;
49101;SDS011;34913;47.520;19.186;2023-12-20T04:12:32;74.30;;;23.85;;
49101;SDS011;34913;47.520;19.186;2023-12-20T04:14:57;67.13;;;22.75;;
49101;SDS011;34913;47.520;19.186;2023-12-20T04:17:23;75.07;;;24.38;;
49101;SDS011;34913;47.520;19.186;2023-12-20T04:19:49;73.07;;;23.58;;
49101;SDS011;34913;47.520;19.186;2023-12-20T04:22:15;69.40;;;25.10;;
49101;SDS011;34913;47.520;19.186;2023-12-20T04:24:40;69.93;;;23.73;;
49101;SDS011;34913;47.520;19.186;2023-12-20T04:27:07;62.88;;;22.60;;
49101;SDS011;34913;47.520;19.186;2023-12-20T04:29:33;63.10;;;24.75;;
49101;SDS011;34913;47.520;19.186;2023-12-20T04:31:58;67.63;;;25.13;;
49101;SDS011;34913;47.520;19.186;2023-12-20T04:34:23;71.68;;;24.63;;
49101;SDS011;34913;47.520;19.186;2023-12-20T04:36:49;64.25;;;24.48;;
49101;SDS011;34913;47.520;19.186;2023-12-20T04:39:14;75.85;;;25.85;;
49101;SDS011;34913;47.520;19.186;2023-12-20T04:41:42;77.75;;;26.80;;
49101;SDS011;34913;47.520;19.186;2023-12-20T04:44:08;67.55;;;25.17;;
49101;SDS011;34913;47.520;19.186;2023-12-20T04:46:33;83.18;;;26.15;;
49101;SDS011;34913;47.520;19.186;2023-12-20T04:48:58;68.80;;;26.20;;
49101;SDS011;34913;47.520;19.186;2023-12-20T04:51:24;72.55;;;26.70;;
49101;SDS011;34913;47.520;19.186;2023-12-20T04:53:49;75.03;;;25.65;;
49101;SDS011;34913;47.520;19.186;2023-12-20T04:56:15;61.50;;;25.30;;
49101;SDS011;34913;47.520;19.186;2023-12-20T04:58:40;71.30;;;26.08;;
49101;SDS011;34913;47.520;19.186;2023-12-20T05:01:06;73.93;;;26.13;;
49101;SDS011;34913;47.520;19.186;2023-12-20T05:03:32;64.20;;;26.13;;
49101;SDS011;34913;47.520;19.186;2023-12-20T05:05:57;58.38;;;24.67;;
49101;SDS011;34913;47.520;19.186;2023-12-20T05:08:23;62.58;;;25.33;;
49101;SDS011;34913;47.520;19.186;2023-12-20T05:10:48;61.72;;;24.20;;
49101;SDS011;34913;47.520;19.186;2023-12-20T05:13:14;62.92;;;25.52;;
49101;SDS011;34913;47.520;19.186;2023-12-20T05:15:39;73.43;;;25.40;;
49101;SDS011;34913;47.520;19.186;2023-12-20T05:18:04;83.13;;;25.50;;
49101;SDS011;34913;47.520;19.186;2023-12-20T05:20:30;79.00;;;24.92;;
49101;SDS011;34913;47.520;19.186;2023-12-20T05:22:55;85.20;;;25.75;;
49101;SDS011;34913;47.520;19.186;2023-12-20T05:25:20;85.95;;;25.85;;
49101;SDS011;34913;47.520;19.186;2023-12-20T05:27:46;60.85;;;25.13;;
49101;SDS011;34913;47.520;19.186;2023-12-20T05:30:11;76.35;;;25.48;;
49101;SDS011;34913;47.520;19.186;2023-12-20T05:32:36;62.38;;;24.38;;
49101;SDS011;34913;47.520;19.186;2023-12-20T05:35:02;67.70;;;24.75;;
49101;SDS011;34913;47.520;19.186;2023-12-20T05:37:28;62.97;;;24.83;;
49101;SDS011;34913;47.520;19.186;2023-12-20T05:39:53;63.80;;;24.88;;
49101;SDS011;34913;47.520;19.186;2023-12-20T05:42:19;65.25;;;25.80;;
49101;SDS011;34913;47.520;19.186;2023-12-20T05:44:44;75.22;;;24.98;;
49101;SDS011;34913;47.520;19.186;2023-12-20T05:47:09;76.03;;;24.98;;
49101;SDS011;34913;47.520;19.186;2023-12-20T05:49:35;73.30;;;24.40;;
49101;SDS011;34913;47.520;19.186;2023-12-20T05:52:00;61.72;;;24.20;;
49101;SDS011;34913;47.520;19.186;2023-12-20T05:54:25;52.55;;;22.92;;
49101;SDS011;34913;47.520;19.186;2023-12-20T05:56:51;56.15;;;23.60;;
49101;SDS011;34913;47.520;19.186;2023-12-20T05:59:16;58.05;;;24.77;;
49101;SDS011;34913;47.520;19.186;2023-12-20T06:01:41;61.00;;;23.60;;
49101;SDS011;34913;47.520;19.186;2023-12-20T06:04:07;57.30;;;23.77;;
49101;SDS011;34913;47.520;19.186;2023-12-20T06:06:32;58.05;;;22.33;;
49101;SDS011;34913;47.520;19.186;2023-12-20T06:08:57;54.58;;;22.55;;
49101;SDS011;34913;47.520;19.186;2023-12-20T06:11:23;59.33;;;22.88;;
49101;SDS011;34913;47.520;19.186;2023-12-20T06:13:48;57.17;;;24.50;;
49101;SDS011;34913;47.520;19.186;2023-12-20T06:16:17;60.78;;;24.17;;
49101;SDS011;34913;47.520;19.186;2023-12-20T06:18:43;63.40;;;23.88;;
49101;SDS011;34913;47.520;19.186;2023-12-20T06:21:08;66.82;;;25.67;;
49101;SDS011;34913;47.520;19.186;2023-12-20T06:23:39;59.20;;;24.17;;
49101;SDS011;34913;47.520;19.186;2023-12-20T06:26:04;59.58;;;24.42;;
49101;SDS011;34913;47.520;19.186;2023-12-20T06:28:30;69.15;;;25.10;;
49101;SDS011;34913;47.520;19.186;2023-12-20T06:30:55;59.33;;;25.08;;
49101;SDS011;34913;47.520;19.186;2023-12-20T06:33:22;52.15;;;22.83;;
49101;SDS011;34913;47.520;19.186;2023-12-20T06:35:47;66.63;;;23.25;;
49101;SDS011;34913;47.520;19.186;2023-12-20T06:38:13;111.07;;;24.17;;
49101;SDS011;34913;47.520;19.186;2023-12-20T06:40:38;76.10;;;23.75;;
49101;SDS011;34913;47.520;19.186;2023-12-20T06:43:04;137.52;;;24.83;;
49101;SDS011;34913;47.520;19.186;2023-12-20T06:45:29;85.20;;;24.08;;
49101;SDS011;34913;47.520;19.186;2023-12-20T06:47:54;90.88;;;24.08;;
49101;SDS011;34913;47.520;19.186;2023-12-20T06:50:20;71.93;;;25.00;;
49101;SDS011;34913;47.520;19.186;2023-12-20T06:52:45;60.78;;;23.70;;
49101;SDS011;34913;47.520;19.186;2023-12-20T06:55:11;77.07;;;24.63;;
49101;SDS011;34913;47.520;19.186;2023-12-20T06:57:36;69.95;;;24.58;;
49101;SDS011;34913;47.520;19.186;2023-12-20T07:00:02;61.65;;;25.48;;
49101;SDS011;34913;47.520;19.186;2023-12-20T07:02:28;76.03;;;28.38;;
49101;SDS011;34913;47.520;19.186;2023-12-20T07:04:55;106.10;;;27.90;;
49101;SDS011;34913;47.520;19.186;2023-12-20T07:07:20;70.88;;;25.63;;
49101;SDS011;34913;47.520;19.186;2023-12-20T07:09:48;106.53;;;23.00;;
49101;SDS011;34913;47.520;19.186;2023-12-20T07:12:13;94.40;;;21.92;;
49101;SDS011;34913;47.520;19.186;2023-12-20T07:14:38;122.28;;;23.17;;
49101;SDS011;34913;47.520;19.186;2023-12-20T07:17:04;99.05;;;22.02;;
49101;SDS011;34913;47.520;19.186;2023-12-20T07:19:29;89.72;;;21.73;;
49101;SDS011;34913;47.520;19.186;2023-12-20T07:21:54;97.97;;;22.23;;
49101;SDS011;34913;47.520;19.186;2023-12-20T07:24:20;111.68;;;21.92;;
49101;SDS011;34913;47.520;19.186;2023-12-20T07:26:45;102.25;;;20.23;;
49101;SDS011;34913;47.520;19.186;2023-12-20T07:29:10;76.57;;;20.00;;
49101;SDS011;34913;47.520;19.186;2023-12-20T07:31:36;64.75;;;21.10;;
49101;SDS011;34913;47.520;19.186;2023-12-20T07:34:01;69.07;;;20.08;;
49101;SDS011;34913;47.520;19.186;2023-12-20T07:36:26;83.57;;;21.33;;
49101;SDS011;34913;47.520;19.186;2023-12-20T07:38:52;72.38;;;20.85;;
49101;SDS011;34913;47.520;19.186;2023-12-20T07:41:17;132.30;;;20.35;;
49101;SDS011;34913;47.520;19.186;2023-12-20T07:43:46;95.57;;;19.08;;
49101;SDS011;34913;47.520;19.186;2023-12-20T07:46:11;95.78;;;19.17;;
49101;SDS011;34913;47.520;19.186;2023-12-20T07:48:37;50.53;;;18.52;;
49101;SDS011;34913;47.520;19.186;2023-12-20T07:51:03;53.15;;;19.25;;
49101;SDS011;34913;47.520;19.186;2023-12-20T07:53:30;83.18;;;20.27;;
49101;SDS011;34913;47.520;19.186;2023-12-20T07:55:56;132.93;;;22.88;;
49101;SDS011;34913;47.520;19.186;2023-12-20T07:58:21;93.32;;;20.85;;
49101;SDS011;34913;47.520;19.186;2023-12-20T08:00:47;79.07;;;21.50;;
49101;SDS011;34913;47.520;19.186;2023-12-20T08:03:12;79.07;;;20.33;;
49101;SDS011;34913;47.520;19.186;2023-12-20T08:05:38;57.38;;;20.10;;
49101;SDS011;34913;47.520;19.186;2023-12-20T08:08:05;74.35;;;20.63;;
49101;SDS011;34913;47.520;19.186;2023-12-20T08:10:31;83.45;;;22.25;;
49101;SDS011;34913;47.520;19.186;2023-12-20T08:12:56;89.45;;;20.70;;
49101;SDS011;34913;47.520;19.186;2023-12-20T08:15:22;106.60;;;24.10;;
49101;SDS011;34913;47.520;19.186;2023-12-20T08:17:48;76.60;;;23.35;;
49101;SDS011;34913;47.520;19.186;2023-12-20T08:20:15;66.03;;;21.02;;
49101;SDS011;34913;47.520;19.186;2023-12-20T08:22:41;52.30;;;20.25;;
49101;SDS011;34913;47.520;19.186;2023-12-20T08:25:06;73.43;;;22.13;;
49101;SDS011;34913;47.520;19.186;2023-12-20T08:27:33;79.60;;;21.85;;
49101;SDS011;34913;47.520;19.186;2023-12-20T08:29:58;69.90;;;20.23;;
49101;SDS011;34913;47.520;19.186;2023-12-20T08:32:26;88.88;;;19.60;;
49101;SDS011;34913;47.520;19.186;2023-12-20T08:34:52;57.05;;;19.85;;
49101;SDS011;34913;47.520;19.186;2023-12-20T08:37:17;53.13;;;20.25;;
49101;SDS011;34913;47.520;19.186;2023-12-20T08:39:43;65.65;;;20.20;;
49101;SDS011;34913;47.520;19.186;2023-12-20T08:42:09;65.55;;;19.52;;
49101;SDS011;34913;47.520;19.186;2023-12-20T08:44:34;62.72;;;20.27;;
49101;SDS011;34913;47.520;19.186;2023-12-20T08:46:59;64.30;;;19.70;;
49101;SDS011;34913;47.520;19.186;2023-12-20T08:49:25;86.20;;;19.17;;
49101;SDS011;34913;47.520;19.186;2023-12-20T08:51:50;60.50;;;20.58;;
49101;SDS011;34913;47.520;19.186;2023-12-20T08:54:15;66.38;;;19.92;;
49101;SDS011;34913;47.520;19.186;2023-12-20T08:56:42;96.22;;;20.92;;
49101;SDS011;34913;47.520;19.186;2023-12-20T08:59:08;73.28;;;21.17;;
49101;SDS011;34913;47.520;19.186;2023-12-20T09:01:34;68.20;;;21.63;;
49101;SDS011;34913;47.520;19.186;2023-12-20T09:04:00;60.05;;;21.55;;
49101;SDS011;34913;47.520;19.186;2023-12-20T09:06:25;63.72;;;21.02;;
49101;SDS011;34913;47.520;19.186;2023-12-20T09:08:51;73.72;;;21.67;;
49101;SDS011;34913;47.520;19.186;2023-12-20T09:11:16;80.20;;;20.92;;
49101;SDS011;34913;47.520;19.186;2023-12-20T09:13:42;60.42;;;22.05;;
49101;SDS011;34913;47.520;19.186;2023-12-20T09:16:09;72.55;;;21.73;;
49101;SDS011;34913;47.520;19.186;2023-12-20T09:18:34;52.88;;;20.92;;
49101;SDS011;34913;47.520;19.186;2023-12-20T09:21:00;60.28;;;21.05;;
49101;SDS011;34913;47.520;19.186;2023-12-20T09:23:25;83.47;;;20.60;;
49101;SDS011;34913;47.520;19.186;2023-12-20T09:25:51;54.00;;;21.55;;
49101;SDS011;34913;47.520;19.186;2023-12-20T09:28:16;68.82;;;21.55;;
49101;SDS011;34913;47.520;19.186;2023-12-20T09:30:41;60.70;;;22.17;;
49101;SDS011;34913;47.520;19.186;2023-12-20T09:33:07;56.35;;;21.33;;
49101;SDS011;34913;47.520;19.186;2023-12-20T09:35:32;63.58;;;21.48;;
49101;SDS011;34913;47.520;19.186;2023-12-20T09:37:58;77.40;;;20.77;;
49101;SDS011;34913;47.520;19.186;2023-12-20T09:40:23;93.93;;;21.17;;
49101;SDS011;34913;47.520;19.186;2023-12-20T09:43:13;110.72;;;20.95;;
49101;SDS011;34913;47.520;19.186;2023-12-20T09:45:40;63.60;;;22.08;;
49101;SDS011;34913;47.520;19.186;2023-12-20T09:48:07;71.97;;;22.13;;
49101;SDS011;34913;47.520;19.186;2023-12-20T09:50:32;69.32;;;23.35;;
49101;SDS011;34913;47.520;19.186;2023-12-20T09:52:58;64.53;;;22.50;;
49101;SDS011;34913;47.520;19.186;2023-12-20T09:55:27;63.58;;;23.17;;
49101;SDS011;34913;47.520;19.186;2023-12-20T09:57:55;77.72;;;23.80;;
49101;SDS011;34913;47.520;19.186;2023-12-20T10:00:20;86.22;;;24.65;;
49101;SDS011;34913;47.520;19.186;2023-12-20T10:02:59;88.55;;;23.10;;
49101;SDS011;34913;47.520;19.186;2023-12-20T10:05:28;74.80;;;23.40;;
49101;SDS011;34913;47.520;19.186;2023-12-20T10:07:58;66.80;;;23.27;;
49101;SDS011;34913;47.520;19.186;2023-12-20T10:10:24;87.32;;;23.95;;
49101;SDS011;34913;47.520;19.186;2023-12-20T10:13:03;75.65;;;25.25;;
49101;SDS011;34913;47.520;19.186;2023-12-20T10:15:36;79.43;;;25.08;;
49101;SDS011;34913;47.520;19.186;2023-12-20T10:18:03;64.18;;;25.52;;
49101;SDS011;34913;47.520;19.186;2023-12-20T10:20:29;63.80;;;24.05;;
49101;SDS011;34913;47.520;19.186;2023-12-20T10:22:55;79.43;;;26.33;;
49101;SDS011;34913;47.520;19.186;2023-12-20T10:25:21;70.38;;;27.05;;
49101;SDS011;34913;47.520;19.186;2023-12-20T10:27:47;103.60;;;28.95;;
49101;SDS011;34913;47.520;19.186;2023-12-20T10:30:13;103.20;;;29.45;;
49101;SDS011;34913;47.520;19.186;2023-12-20T10:32:39;83.38;;;29.63;;
49101;SDS011;34913;47.520;19.186;2023-12-20T10:35:05;75.18;;;29.77;;
49101;SDS011;34913;47.520;19.186;2023-12-20T10:37:34;94.78;;;30.98;;
49101;SDS011;34913;47.520;19.186;2023-12-20T10:40:01;75.43;;;30.88;;
49101;SDS011;34913;47.520;19.186;2023-12-20T10:42:28;79.78;;;29.38;;
49101;SDS011;34913;47.520;19.186;2023-12-20T10:44:55;71.57;;;29.58;;
49101;SDS011;34913;47.520;19.186;2023-12-20T10:47:21;75.35;;;30.38;;
49101;SDS011;34913;47.520;19.186;2023-12-20T10:49:49;68.15;;;28.67;;
49101;SDS011;34913;47.520;19.186;2023-12-20T10:52:17;65.22;;;28.60;;
49101;SDS011;34913;47.520;19.186;2023-12-20T10:54:42;63.42;;;28.10;;
49101;SDS011;34913;47.520;19.186;2023-12-20T10:57:09;73.97;;;29.20;;
49101;SDS011;34913;47.520;19.186;2023-12-20T10:59:36;75.30;;;29.35;;
49101;SDS011;34913;47.520;19.186;2023-12-20T11:02:02;78.70;;;29.95;;
49101;SDS011;34913;47.520;19.186;2023-12-20T11:07:22;68.82;;;29.20;;
49101;SDS011;34913;47.520;19.186;2023-12-20T11:10:03;65.55;;;28.73;;
49101;SDS011;34913;47.520;19.186;2023-12-20T11:12:52;64.15;;;28.05;;
49101;SDS011;34913;47.520;19.186;2023-12-20T11:15:22;65.38;;;28.77;;
49101;SDS011;34913;47.520;19.186;2023-12-20T11:17:56;61.40;;;27.63;;
49101;SDS011;34913;47.520;19.186;2023-12-20T11:20:24;66.40;;;28.90;;
49101;SDS011;34913;47.520;19.186;2023-12-20T11:22:53;68.03;;;29.38;;
49101;SDS011;34913;47.520;19.186;2023-12-20T11:25:19;70.25;;;31.08;;
49101;SDS011;34913;47.520;19.186;2023-12-20T11:27:46;73.35;;;31.27;;
49101;SDS011;34913;47.520;19.186;2023-12-20T11:31:08;74.13;;;32.00;;
49101;SDS011;34913;47.520;19.186;2023-12-20T11:33:31;67.78;;;31.42;;
49101;SDS011;34913;47.520;19.186;2023-12-20T11:36:00;65.78;;;31.70;;
49101;SDS011;34913;47.520;19.186;2023-12-20T11:38:27;73.50;;;33.55;;
49101;SDS011;34913;47.520;19.186;2023-12-20T11:40:53;76.18;;;34.38;;
49101;SDS011;34913;47.520;19.186;2023-12-20T11:43:29;79.40;;;34.95;;
49101;SDS011;34913;47.520;19.186;2023-12-20T11:45:56;82.45;;;34.08;;
49101;SDS011;34913;47.520;19.186;2023-12-20T11:48:27;83.28;;;34.72;;
49101;SDS011;34913;47.520;19.186;2023-12-20T11:50:53;78.85;;;35.10;;
49101;SDS011;34913;47.520;19.186;2023-12-20T11:53:18;86.38;;;35.33;;
49101;SDS011;34913;47.520;19.186;2023-12-20T11:55:47;78.75;;;35.10;;
49101;SDS011;34913;47.520;19.186;2023-12-20T11:58:13;75.20;;;32.88;;
49101;SDS011;34913;47.520;19.186;2023-12-20T12:00:40;74.75;;;34.35;;
49101;SDS011;34913;47.520;19.186;2023-12-20T12:03:06;79.53;;;36.13;;
49101;SDS011;34913;47.520;19.186;2023-12-20T12:05:31;73.35;;;33.28;;
49101;SDS011;34913;47.520;19.186;2023-12-20T12:07:58;74.80;;;34.30;;
49101;SDS011;34913;47.520;19.186;2023-12-20T12:10:23;69.75;;;33.22;;
49101;SDS011;34913;47.520;19.186;2023-12-20T12:12:49;66.43;;;32.33;;
49101;SDS011;34913;47.520;19.186;2023-12-20T12:15:14;62.53;;;30.30;;
49101;SDS011;34913;47.520;19.186;2023-12-20T12:17:40;62.03;;;31.30;;
49101;SDS011;34913;47.520;19.186;2023-12-20T12:20:06;63.05;;;29.88;;
49101;SDS011;34913;47.520;19.186;2023-12-20T12:22:33;58.15;;;28.30;;
49101;SDS011;34913;47.520;19.186;2023-12-20T12:24:59;58.92;;;29.60;;
49101;SDS011;34913;47.520;19.186;2023-12-20T12:27:35;50.10;;;27.02;;
49101;SDS011;34913;47.520;19.186;2023-12-20T12:30:03;57.10;;;28.13;;
49101;SDS011;34913;47.520;19.186;2023-12-20T12:32:32;55.55;;;28.50;;
49101;SDS011;34913;47.520;19.186;2023-12-20T12:34:57;49.47;;;26.50;;
49101;SDS011;34913;47.520;19.186;2023-12-20T12:37:23;53.90;;;28.70;;
49101;SDS011;34913;47.520;19.186;2023-12-20T12:39:53;51.80;;;27.27;;
49101;SDS011;34913;47.520;19.186;2023-12-20T12:42:19;48.40;;;25.83;;
49101;SDS011;34913;47.520;19.186;2023-12-20T12:44:45;48.42;;;25.58;;
49101;SDS011;34913;47.520;19.186;2023-12-20T12:47:11;50.60;;;27.60;;
49101;SDS011;34913;47.520;19.186;2023-12-20T12:49:36;53.95;;;26.42;;
49101;SDS011;34913;47.520;19.186;2023-12-20T12:52:01;50.00;;;26.00;;
49101;SDS011;34913;47.520;19.186;2023-12-20T12:54:28;47.78;;;26.00;;
49101;SDS011;34913;47.520;19.186;2023-12-20T12:56:53;48.65;;;26.70;;
49101;SDS011;34913;47.520;19.186;2023-12-20T12:59:18;47.33;;;26.17;;
49101;SDS011;34913;47.520;19.186;2023-12-20T13:01:44;55.60;;;27.38;;
49101;SDS011;34913;47.520;19.186;2023-12-20T13:04:09;48.97;;;26.10;;
49101;SDS011;34913;47.520;19.186;2023-12-20T13:06:38;46.55;;;25.20;;
49101;SDS011;34913;47.520;19.186;2023-12-20T13:09:04;48.22;;;25.23;;
49101;SDS011;34913;47.520;19.186;2023-12-20T13:11:30;44.17;;;22.92;;
49101;SDS011;34913;47.520;19.186;2023-12-20T13:13:56;39.83;;;21.90;;
49101;SDS011;34913;47.520;19.186;2023-12-20T13:16:22;39.40;;;22.50;;
49101;SDS011;34913;47.520;19.186;2023-12-20T13:18:49;43.85;;;22.00;;
49101;SDS011;34913;47.520;19.186;2023-12-20T13:21:15;39.55;;;21.80;;
49101;SDS011;34913;47.520;19.186;2023-12-20T13:23:41;40.45;;;22.73;;
49101;SDS011;34913;47.520;19.186;2023-12-20T13:26:06;38.13;;;22.00;;
49101;SDS011;34913;47.520;19.186;2023-12-20T13:28:32;41.47;;;21.42;;
49101;SDS011;34913;47.520;19.186;2023-12-20T13:30:58;38.40;;;21.38;;
49101;SDS011;34913;47.520;19.186;2023-12-20T13:33:23;38.53;;;21.55;;
49101;SDS011;34913;47.520;19.186;2023-12-20T13:35:48;36.22;;;21.15;;
49101;SDS011;34913;47.520;19.186;2023-12-20T13:38:14;36.40;;;20.42;;
49101;SDS011;34913;47.520;19.186;2023-12-20T13:40:39;33.70;;;19.25;;
49101;SDS011;34913;47.520;19.186;2023-12-20T13:43:05;34.35;;;20.05;;
49101;SDS011;34913;47.520;19.186;2023-12-20T13:45:31;39.17;;;21.30;;
49101;SDS011;34913;47.520;19.186;2023-12-20T13:47:56;38.95;;;21.50;;
49101;SDS011;34913;47.520;19.186;2023-12-20T13:50:22;42.70;;;21.77;;
49101;SDS011;34913;47.520;19.186;2023-12-20T13:52:47;40.13;;;21.38;;
49101;SDS011;34913;47.520;19.186;2023-12-20T13:55:13;41.45;;;20.40;;
49101;SDS011;34913;47.520;19.186;2023-12-20T13:57:38;34.95;;;19.52;;
49101;SDS011;34913;47.520;19.186;2023-12-20T14:00:05;35.70;;;20.77;;
49101;SDS011;34913;47.520;19.186;2023-12-20T14:02:30;33.20;;;19.05;;
49101;SDS011;34913;47.520;19.186;2023-12-20T14:04:56;27.67;;;16.67;;